createdAt,value
2016-05-07T00:00:43.718Z,12.6
2016-05-07T00:01:43.736Z,12.54
2016-05-07T00:02:43.582Z,12.62
2016-05-07T00:03:43.757Z,12.56
2016-05-07T00:04:43.759Z,12.6
2016-05-07T00:05:43.622Z,12.6
2016-05-07T00:06:43.968Z,12.6
2016-05-07T00:07:43.768Z,12.64
2016-05-07T00:08:43.786Z,12.57
2016-05-07T00:10:57.869Z,12.56
2016-05-07T00:11:43.326Z,12.56
2016-05-07T00:12:43.766Z,12.56
2016-05-07T00:13:57.877Z,12.59
2016-05-07T00:14:57.881Z,12.53
2016-05-07T00:16:43.807Z,12.52
2016-05-07T00:17:57.841Z,12.54
2016-05-07T00:18:43.297Z,12.53
2016-05-07T00:19:43.800Z,12.41
2016-05-07T00:20:43.788Z,12.52
2016-05-07T00:21:43.649Z,12.52
2016-05-07T00:22:44.011Z,12.52
2016-05-07T00:24:43.657Z,12.52
2016-05-07T00:25:43.332Z,12.53
2016-05-07T00:26:43.851Z,12.56
2016-05-07T00:27:43.837Z,12.5
2016-05-07T00:28:43.840Z,12.41
2016-05-07T00:29:43.842Z,12.52
2016-05-07T00:30:43.846Z,12.52
2016-05-07T00:31:43.848Z,12.54
2016-05-07T00:32:43.851Z,12.42
2016-05-07T00:33:43.853Z,12.5
2016-05-07T00:34:43.715Z,12.54
2016-05-07T00:35:57.812Z,12.52
2016-05-07T00:36:43.877Z,12.47
2016-05-07T00:37:44.084Z,12.5
2016-05-07T00:38:43.726Z,12.41
2016-05-07T00:39:43.917Z,12.35
2016-05-07T00:40:44.309Z,12.39
2016-05-07T00:41:44.047Z,12.38
2016-05-07T00:43:43.942Z,12.34
2016-05-07T00:44:43.758Z,12.32
2016-05-07T00:45:43.792Z,12.24
2016-05-07T00:46:44.122Z,12.17
2016-05-07T00:47:44.172Z,12.16
2016-05-07T00:48:43.488Z,12.19
2016-05-07T00:49:43.818Z,12.19
2016-05-07T00:50:44.196Z,12.2
2016-05-07T00:51:43.949Z,12.16
2016-05-07T00:52:43.982Z,12.1
2016-05-07T00:53:44.032Z,12.17
2016-05-07T00:54:44.019Z,12.13
2016-05-07T00:55:43.819Z,12.12
2016-05-07T00:56:43.978Z,12.12
2016-05-07T00:57:43.979Z,12.1
2016-05-07T00:58:44.187Z,12.13
2016-05-07T00:59:43.985Z,12.05
2016-05-07T01:00:43.832Z,12.13
2016-05-07T01:01:44.022Z,12.12
2016-05-07T01:02:44.415Z,12.12
2016-05-07T01:03:43.840Z,12.05
2016-05-07T01:04:44.656Z,12.07
2016-05-07T01:05:44.034Z,12.07
2016-05-07T01:06:43.739Z,12.05
2016-05-07T01:07:44.023Z,12.05
2016-05-07T01:08:44.119Z,12.01
2016-05-07T01:09:44.481Z,11.99
2016-05-07T01:10:44.031Z,12.05
2016-05-07T01:11:44.050Z,12.07
2016-05-07T01:12:44.052Z,11.98
2016-05-07T01:13:44.055Z,12.01
2016-05-07T01:14:44.058Z,11.94
2016-05-07T01:15:43.903Z,11.9
2016-05-07T01:16:44.078Z,11.95
2016-05-07T01:17:44.081Z,11.91
2016-05-07T01:18:44.099Z,11.95
2016-05-07T01:19:44.086Z,11.95
2016-05-07T01:20:43.932Z,11.9
2016-05-07T01:21:44.108Z,11.86
2016-05-07T01:22:44.313Z,11.83
2016-05-07T01:23:44.113Z,11.79
2016-05-07T01:24:43.974Z,11.79
2016-05-07T01:25:58.181Z,11.78
2016-05-07T01:26:44.136Z,11.78
2016-05-07T01:27:44.155Z,11.69
2016-05-07T01:28:44.346Z,11.7
2016-05-07T01:29:44.176Z,11.67
2016-05-07T01:30:44.162Z,11.7
2016-05-07T01:31:44.135Z,11.64
2016-05-07T01:32:44.137Z,11.67
2016-05-07T01:33:44.140Z,11.55
2016-05-07T01:34:58.221Z,11.75
2016-05-07T01:35:44.145Z,11.64
2016-05-07T01:36:44.148Z,11.7
2016-05-07T01:37:44.166Z,11.72
2016-05-07T01:38:44.153Z,11.65
2016-05-07T01:39:44.172Z,11.54
2016-05-07T01:40:44.175Z,11.6
2016-05-07T01:41:44.060Z,11.62
2016-05-07T01:42:44.177Z,11.62
2016-05-07T01:43:44.195Z,11.61
2016-05-07T01:44:44.194Z,11.57
2016-05-07T01:45:44.071Z,11.57
2016-05-07T01:46:44.418Z,11.6
2016-05-07T01:48:44.064Z,11.57
2016-05-07T01:49:44.253Z,11.54
2016-05-07T01:50:44.226Z,11.57
2016-05-07T01:51:44.087Z,11.6
2016-05-07T01:52:44.230Z,11.52
2016-05-07T01:53:44.250Z,11.61
2016-05-07T01:54:44.236Z,11.57
2016-05-07T01:55:44.270Z,11.57
2016-05-07T01:56:44.476Z,11.6
2016-05-07T01:57:44.650Z,11.55
2016-05-07T01:58:44.278Z,11.62
2016-05-07T01:59:44.297Z,11.57
2016-05-07T02:00:44.236Z,11.61
2016-05-07T02:02:44.258Z,11.54
2016-05-07T02:03:44.260Z,11.57
2016-05-07T02:04:44.294Z,11.6
2016-05-07T02:05:44.297Z,11.57
2016-05-07T02:06:44.519Z,11.57
2016-05-07T02:07:44.318Z,11.58
2016-05-07T02:08:44.321Z,11.43
2016-05-07T02:09:57.057Z,11.47
2016-05-07T02:10:44.529Z,11.54
2016-05-07T02:11:44.329Z,11.42
2016-05-07T02:12:44.504Z,11.39
2016-05-07T02:13:44.162Z,11.39
2016-05-07T02:14:44.306Z,11.39
2016-05-07T02:15:44.308Z,11.42
2016-05-07T02:16:44.327Z,11.28
2016-05-07T02:17:44.407Z,11.32
2016-05-07T02:18:44.332Z,11.33
2016-05-07T02:19:44.334Z,11.33
2016-05-07T02:20:44.353Z,11.28
2016-05-07T02:21:44.574Z,11.24
2016-05-07T02:22:44.203Z,11.28
2016-05-07T02:23:44.376Z,11.25
2016-05-07T02:24:44.382Z,11.22
2016-05-07T02:25:44.588Z,11.17
2016-05-07T02:26:58.278Z,11.19
2016-05-07T02:27:45.172Z,11.25
2016-05-07T02:28:44.409Z,11.22
2016-05-07T02:29:44.381Z,11.18
2016-05-07T02:30:44.398Z,11.14
2016-05-07T02:31:44.400Z,11.17
2016-05-07T02:32:44.388Z,11.1
2016-05-07T02:33:44.392Z,11.07
2016-05-07T02:34:44.253Z,11.11
2016-05-07T02:35:44.444Z,11.02
2016-05-07T02:36:44.258Z,11
2016-05-07T02:37:44.604Z,11.09
2016-05-07T02:38:44.405Z,10.94
2016-05-07T02:39:44.408Z,10.96
2016-05-07T02:40:44.457Z,10.99
2016-05-07T02:41:44.663Z,11.03
2016-05-07T02:42:59.727Z,10.92
2016-05-07T02:43:44.621Z,10.94
2016-05-07T02:44:43.983Z,10.96
2016-05-07T02:45:44.424Z,10.91
2016-05-07T02:46:44.144Z,10.91
2016-05-07T02:47:44.288Z,10.86
2016-05-07T02:48:44.290Z,10.85
2016-05-07T02:49:44.465Z,10.85
2016-05-07T02:50:44.296Z,10.84
2016-05-07T02:51:44.455Z,10.76
2016-05-07T02:52:44.473Z,10.68
2016-05-07T02:53:44.648Z,10.64
2016-05-07T02:54:44.463Z,10.68
2016-05-07T02:55:44.325Z,10.63
2016-05-07T02:56:44.671Z,10.68
2016-05-07T02:57:44.799Z,10.61
2016-05-07T02:58:44.005Z,10.64
2016-05-07T02:59:44.508Z,10.55
2016-05-07T03:00:44.511Z,10.51
2016-05-07T03:01:44.716Z,10.55
2016-05-07T03:02:44.500Z,10.52
2016-05-07T03:03:44.753Z,10.53
2016-05-07T03:04:44.412Z,10.6
2016-05-07T03:05:44.508Z,10.6
2016-05-07T03:06:44.511Z,10.55
2016-05-07T03:07:44.513Z,10.63
2016-05-07T03:08:44.516Z,10.55
2016-05-07T03:09:44.535Z,10.63
2016-05-07T03:10:44.506Z,10.59
2016-05-07T03:11:44.524Z,10.63
2016-05-07T03:12:59.058Z,10.63
2016-05-07T03:13:44.076Z,10.63
2016-05-07T03:14:44.736Z,10.56
2016-05-07T03:15:44.535Z,10.66
2016-05-07T03:16:44.538Z,10.61
2016-05-07T03:17:44.540Z,10.56
2016-05-07T03:18:44.543Z,10.53
2016-05-07T03:19:44.248Z,10.55
2016-05-07T03:20:44.549Z,10.53
2016-05-07T03:21:44.567Z,10.55
2016-05-07T03:22:44.570Z,10.56
2016-05-07T03:23:44.587Z,10.52
2016-05-07T03:24:44.607Z,10.6
2016-05-07T03:26:44.612Z,10.55
2016-05-07T03:27:44.848Z,10.6
2016-05-07T03:28:44.632Z,10.55
2016-05-07T03:29:44.588Z,10.61
2016-05-07T03:30:44.435Z,10.55
2016-05-07T03:31:44.594Z,10.59
2016-05-07T03:32:44.628Z,10.59
2016-05-07T03:33:44.474Z,10.61
2016-05-07T03:34:44.478Z,10.59
2016-05-07T03:35:44.636Z,10.63
2016-05-07T03:36:58.686Z,10.66
2016-05-07T03:37:44.828Z,10.63
2016-05-07T03:38:44.628Z,10.7
2016-05-07T03:39:44.615Z,10.67
2016-05-07T03:40:44.619Z,10.67
2016-05-07T03:41:44.824Z,10.66
2016-05-07T03:42:44.998Z,10.78
2016-05-07T03:43:44.641Z,10.73
2016-05-07T03:44:44.644Z,10.78
2016-05-07T03:45:44.475Z,10.79
2016-05-07T03:46:44.494Z,10.82
2016-05-07T03:47:44.699Z,10.81
2016-05-07T03:48:44.530Z,10.84
2016-05-07T03:49:44.674Z,10.88
2016-05-07T03:50:44.379Z,10.78
2016-05-07T03:51:44.648Z,10.76
2016-05-07T03:52:44.665Z,10.88
2016-05-07T03:53:44.715Z,10.79
2016-05-07T03:54:44.921Z,10.78
2016-05-07T03:55:58.783Z,10.85
2016-05-07T03:56:44.943Z,10.88
2016-05-07T03:57:44.601Z,10.76
2016-05-07T03:58:44.667Z,10.88
2016-05-07T03:59:44.715Z,10.73
2016-05-07T04:00:45.156Z,10.88
2016-05-07T04:01:44.721Z,10.89
2016-05-07T04:02:44.692Z,10.91
2016-05-07T04:03:44.242Z,10.81
2016-05-07T04:04:44.698Z,10.89
2016-05-07T04:05:44.701Z,10.86
2016-05-07T04:06:44.750Z,10.88
2016-05-07T04:07:44.722Z,10.86
2016-05-07T04:08:44.944Z,10.92
2016-05-07T04:09:58.805Z,10.91
2016-05-07T04:10:44.745Z,10.92
2016-05-07T04:11:44.717Z,10.86
2016-05-07T04:12:44.563Z,10.85
2016-05-07T04:13:44.738Z,11.02
2016-05-07T04:14:44.741Z,11.06
2016-05-07T04:15:44.790Z,11.03
2016-05-07T04:17:44.780Z,11.02
2016-05-07T04:18:59.049Z,10.99
2016-05-07T04:19:44.738Z,11.07
2016-05-07T04:20:44.960Z,11.04
2016-05-07T04:21:44.759Z,11.03
2016-05-07T04:22:58.840Z,11.02
2016-05-07T04:23:44.765Z,11.15
2016-05-07T04:24:44.783Z,11.14
2016-05-07T04:25:44.614Z,11.17
2016-05-07T04:26:44.773Z,11.07
2016-05-07T04:27:45.010Z,11.06
2016-05-07T04:28:44.293Z,11.14
2016-05-07T04:29:44.781Z,11.11
2016-05-07T04:30:44.846Z,11.11
2016-05-07T04:31:44.801Z,11.15
2016-05-07T04:32:58.883Z,11.27
2016-05-07T04:33:44.839Z,11.27
2016-05-07T04:34:44.684Z,11.15
2016-05-07T04:35:48.063Z,11.28
2016-05-07T04:36:44.831Z,11.33
2016-05-07T04:37:44.833Z,11.33
2016-05-07T04:38:44.837Z,11.32
2016-05-07T04:39:44.855Z,11.35
2016-05-07T04:40:44.841Z,11.35
2016-05-07T04:41:45.266Z,11.39
2016-05-07T04:42:58.926Z,11.43
2016-05-07T04:43:45.288Z,11.61
2016-05-07T04:44:44.399Z,11.55
2016-05-07T04:45:44.871Z,11.6
2016-05-07T04:46:58.921Z,11.54
2016-05-07T04:47:44.892Z,11.6
2016-05-07T04:48:44.879Z,11.6
2016-05-07T04:49:44.866Z,11.65
2016-05-07T04:50:44.885Z,11.58
2016-05-07T04:51:44.871Z,11.67
2016-05-07T04:52:44.733Z,11.62
2016-05-07T04:53:45.095Z,11.65
2016-05-07T04:54:44.910Z,11.7
2016-05-07T04:55:44.898Z,11.79
2016-05-07T04:56:44.901Z,11.8
2016-05-07T04:57:44.934Z,11.79
2016-05-07T04:58:44.921Z,11.85
2016-05-07T04:59:45.143Z,11.85
2016-05-07T05:00:59.021Z,11.91
2016-05-07T05:01:44.961Z,11.9
2016-05-07T05:02:59.214Z,11.91
2016-05-07T05:03:44.825Z,11.99
2016-05-07T05:05:13.095Z,12.04
2016-05-07T05:05:44.831Z,12.1
2016-05-07T05:06:44.958Z,12.04
2016-05-07T05:07:45.617Z,12.12
2016-05-07T05:08:45.464Z,12.16
2016-05-07T05:09:44.967Z,12.07
2016-05-07T05:10:44.814Z,12.17
2016-05-07T05:11:44.972Z,12.21
2016-05-07T05:12:45.959Z,12.17
2016-05-07T05:13:44.836Z,12.29
2016-05-07T05:14:44.980Z,12.28
2016-05-07T05:15:44.999Z,12.31
2016-05-07T05:16:45.017Z,12.35
2016-05-07T05:17:45.238Z,12.34
2016-05-07T05:18:44.866Z,12.38
2016-05-07T05:19:45.025Z,12.45
2016-05-07T05:20:45.027Z,12.46
2016-05-07T05:21:45.047Z,12.46
2016-05-07T05:22:45.252Z,12.47
2016-05-07T05:23:45.051Z,12.49
2016-05-07T05:24:45.038Z,12.53
2016-05-07T05:25:45.041Z,12.52
2016-05-07T05:26:45.496Z,12.57
2016-05-07T05:27:45.093Z,12.64
2016-05-07T05:28:45.112Z,12.53
2016-05-07T05:29:45.318Z,12.57
2016-05-07T05:30:45.304Z,12.6
2016-05-07T05:31:45.135Z,12.71
2016-05-07T05:32:45.091Z,12.71
2016-05-07T05:33:45.109Z,12.71
2016-05-07T05:34:44.940Z,12.7
2016-05-07T05:35:45.131Z,12.83
2016-05-07T05:36:45.133Z,12.78
2016-05-07T05:38:44.967Z,12.82
2016-05-07T05:39:45.125Z,12.85
2016-05-07T05:40:45.129Z,12.86
2016-05-07T05:41:44.990Z,12.93
2016-05-07T05:43:45.153Z,12.96
2016-05-07T05:44:45.186Z,13.04
2016-05-07T05:45:45.173Z,13.08
2016-05-07T05:46:44.722Z,13.1
2016-05-07T05:47:45.178Z,13.07
2016-05-07T05:48:44.697Z,13.11
2016-05-07T05:49:45.011Z,13.26
2016-05-07T05:50:45.186Z,13.15
2016-05-07T05:51:45.408Z,13.28
2016-05-07T05:52:45.208Z,13.3
2016-05-07T05:53:45.210Z,13.44
2016-05-07T05:54:45.416Z,13.41
2016-05-07T05:55:45.232Z,13.39
2016-05-07T05:56:45.062Z,13.46
2016-05-07T05:57:45.518Z,13.48
2016-05-07T05:58:45.458Z,13.51
2016-05-07T05:59:45.477Z,13.46
2016-05-07T06:00:45.260Z,13.45
2016-05-07T06:01:45.482Z,13.54
2016-05-07T06:02:45.281Z,13.52
2016-05-07T06:03:45.268Z,13.62
2016-05-07T06:04:45.474Z,13.55
2016-05-07T06:05:45.290Z,13.66
2016-05-07T06:06:59.245Z,13.63
2016-05-07T06:07:45.185Z,13.7
2016-05-07T06:08:45.298Z,13.67
2016-05-07T06:09:45.332Z,13.75
2016-05-07T06:10:45.928Z,13.71
2016-05-07T06:11:45.320Z,13.89
2016-05-07T06:12:45.323Z,13.7
2016-05-07T06:14:45.361Z,13.84
2016-05-07T06:16:45.569Z,13.92
2016-05-07T06:17:45.587Z,13.92
2016-05-07T06:18:45.215Z,13.89
2016-05-07T06:19:45.375Z,13.89
2016-05-07T06:20:45.611Z,13.96
2016-05-07T06:21:45.223Z,14
2016-05-07T06:22:45.429Z,14.06
2016-05-07T06:23:59.572Z,14.2
2016-05-07T06:24:45.638Z,14.22
2016-05-07T06:25:45.483Z,14.32
2016-05-07T06:26:45.299Z,14.39
2016-05-07T06:27:46.036Z,14.45
2016-05-07T06:28:45.460Z,14.51
2016-05-07T06:29:45.666Z,14.58
2016-05-07T06:30:45.481Z,14.58
2016-05-07T06:31:45.468Z,14.61
2016-05-07T06:32:45.472Z,14.72
2016-05-07T06:33:45.505Z,14.72
2016-05-07T06:34:45.711Z,14.84
2016-05-07T06:35:45.933Z,14.8
2016-05-07T06:36:59.576Z,14.84
2016-05-07T06:37:45.532Z,14.98
2016-05-07T06:38:45.737Z,14.99
2016-05-07T06:39:59.787Z,15.09
2016-05-07T06:40:45.399Z,15.09
2016-05-07T06:41:45.761Z,15.14
2016-05-07T06:42:45.514Z,15.29
2016-05-07T06:43:45.781Z,15.23
2016-05-07T06:44:46.394Z,15.29
2016-05-07T06:45:45.991Z,15.29
2016-05-07T06:46:45.587Z,15.36
2016-05-07T06:48:45.858Z,15.53
2016-05-07T06:49:45.611Z,15.54
2016-05-07T06:50:45.473Z,15.6
2016-05-07T06:51:45.616Z,15.65
2016-05-07T06:52:45.635Z,15.75
2016-05-07T06:53:45.622Z,15.78
2016-05-07T06:54:45.655Z,15.82
2016-05-07T06:55:45.658Z,15.9
2016-05-07T06:56:45.879Z,15.89
2016-05-07T06:57:45.680Z,15.9
2016-05-07T06:58:45.510Z,15.92
2016-05-07T06:59:45.684Z,16.01
2016-05-07T07:00:45.906Z,15.96
2016-05-07T07:01:45.690Z,16.07
2016-05-07T07:02:45.708Z,16.05
2016-05-07T07:03:45.961Z,16.17
2016-05-07T07:04:45.932Z,16.21
2016-05-07T07:05:45.935Z,16.25
2016-05-07T07:06:46.359Z,16.34
2016-05-07T07:07:45.957Z,16.38
2016-05-07T07:08:46.162Z,16.49
2016-05-07T07:09:45.789Z,16.58
2016-05-07T07:10:45.762Z,16.56
2016-05-07T07:11:59.857Z,16.64
2016-05-07T07:12:45.954Z,16.71
2016-05-07T07:13:46.034Z,16.68
2016-05-07T07:14:46.240Z,16.79
2016-05-07T07:15:46.086Z,16.83
2016-05-07T07:16:45.840Z,16.83
2016-05-07T07:17:46.031Z,16.93
2016-05-07T07:18:45.861Z,17
2016-05-07T07:19:46.050Z,17
2016-05-07T07:20:46.085Z,17.08
2016-05-07T07:21:45.869Z,17.16
2016-05-07T07:22:45.887Z,17.22
2016-05-07T07:23:45.875Z,17.28
2016-05-07T07:24:45.892Z,17.37
2016-05-07T07:25:45.770Z,17.4
2016-05-07T07:26:46.147Z,17.49
2016-05-07T07:27:45.791Z,17.62
2016-05-07T07:28:46.121Z,17.56
2016-05-07T07:29:45.938Z,17.7
2016-05-07T07:30:45.941Z,17.75
2016-05-07T07:31:45.490Z,17.78
2016-05-07T07:32:45.976Z,17.82
2016-05-07T07:33:45.979Z,17.95
2016-05-07T07:34:45.748Z,17.95
2016-05-07T07:35:46.235Z,18.08
2016-05-07T07:36:46.238Z,18.07
2016-05-07T07:37:45.881Z,18.14
2016-05-07T07:38:46.024Z,18.25
2016-05-07T07:39:45.886Z,18.18
2016-05-07T07:40:46.092Z,18.32
2016-05-07T07:41:46.673Z,18.3
2016-05-07T07:42:46.379Z,18.33
2016-05-07T07:43:46.068Z,18.41
2016-05-07T07:44:46.087Z,18.41
2016-05-07T07:46:00.402Z,18.48
2016-05-07T07:46:45.951Z,18.52
2016-05-07T07:47:46.033Z,18.62
2016-05-07T07:48:45.989Z,18.73
2016-05-07T07:49:46.366Z,18.78
2016-05-07T07:50:46.369Z,18.85
2016-05-07T07:51:46.027Z,18.82
2016-05-07T07:53:46.205Z,18.92
2016-05-07T07:54:46.020Z,19
2016-05-07T07:56:00.289Z,19.11
2016-05-07T07:56:46.400Z,19.11
2016-05-07T07:57:46.528Z,19.25
2016-05-07T07:58:46.452Z,19.28
2016-05-07T07:59:46.236Z,19.32
2016-05-07T08:00:46.302Z,19.29
2016-05-07T08:01:46.274Z,19.32
2016-05-07T08:02:46.682Z,19.4
2016-05-07T08:03:46.279Z,19.44
2016-05-07T08:04:46.296Z,19.41
2016-05-07T08:05:46.316Z,19.46
2016-05-07T08:06:46.162Z,19.51
2016-05-07T08:07:46.352Z,19.58
2016-05-07T08:08:46.354Z,19.62
2016-05-07T08:09:46.420Z,19.68
2016-05-07T08:10:46.204Z,19.66
2016-05-07T08:11:46.393Z,19.74
2016-05-07T08:12:47.662Z,19.8
2016-05-07T08:13:46.478Z,19.81
2016-05-07T08:15:46.655Z,19.84
2016-05-07T08:17:00.517Z,19.74
2016-05-07T08:17:46.488Z,19.86
2016-05-07T08:19:00.553Z,19.76
2016-05-07T08:19:46.697Z,19.92
2016-05-07T08:20:46.481Z,19.88
2016-05-07T08:21:46.343Z,19.88
2016-05-07T08:22:46.517Z,19.94
2016-05-07T08:23:46.550Z,19.84
2016-05-07T08:24:46.522Z,19.84
2016-05-07T08:25:46.542Z,19.84
2016-05-07T08:26:46.606Z,19.78
2016-05-07T08:27:46.624Z,19.83
2016-05-07T08:28:46.585Z,19.77
2016-05-07T08:29:46.489Z,19.68
2016-05-07T08:30:46.521Z,19.66
2016-05-07T08:32:01.050Z,19.66
2016-05-07T08:32:47.049Z,19.62
2016-05-07T08:33:46.873Z,19.73
2016-05-07T08:34:47.406Z,19.65
2016-05-07T08:35:47.113Z,19.62
2016-05-07T08:36:46.928Z,19.66
2016-05-07T08:37:46.960Z,19.66
2016-05-07T08:38:46.993Z,19.66
2016-05-07T08:39:47.017Z,19.66
2016-05-07T08:40:47.432Z,19.66
2016-05-07T08:41:47.050Z,19.62
2016-05-07T08:42:47.058Z,19.69
2016-05-07T08:43:47.082Z,19.62
2016-05-07T08:44:47.290Z,19.62
2016-05-07T08:45:47.092Z,19.65
2016-05-07T08:46:47.143Z,19.59
2016-05-07T08:47:47.209Z,19.63
2016-05-07T08:48:47.168Z,19.65
2016-05-07T08:49:47.156Z,19.63
2016-05-07T08:50:47.174Z,19.73
2016-05-07T08:51:47.194Z,19.66
2016-05-07T08:52:47.212Z,19.69
2016-05-07T08:53:46.744Z,19.69
2016-05-07T08:54:47.078Z,19.76
2016-05-07T08:55:46.812Z,19.83
2016-05-07T08:56:47.475Z,19.81
2016-05-07T08:57:47.119Z,19.83
2016-05-07T08:58:47.700Z,19.81
2016-05-07T08:59:47.327Z,19.77
2016-05-07T09:00:47.299Z,19.76
2016-05-07T09:01:47.489Z,19.92
2016-05-07T09:02:47.320Z,20.01
2016-05-07T09:03:47.339Z,19.92
2016-05-07T09:04:47.183Z,19.99
2016-05-07T09:05:47.357Z,19.99
2016-05-07T09:07:01.846Z,20.13
2016-05-07T09:07:47.252Z,20.2
2016-05-07T09:08:47.412Z,20.26
2016-05-07T09:09:47.290Z,20.33
2016-05-07T09:10:47.402Z,20.36
2016-05-07T09:11:47.279Z,20.42
2016-05-07T09:13:47.690Z,20.51
2016-05-07T09:14:47.726Z,20.66
2016-05-07T09:15:47.681Z,20.72
2016-05-07T09:16:47.512Z,20.74
2016-05-07T09:17:47.733Z,20.69
2016-05-07T09:18:47.532Z,20.77
2016-05-07T09:19:47.535Z,20.76
2016-05-07T09:21:01.619Z,20.82
2016-05-07T09:21:47.556Z,20.74
2016-05-07T09:22:47.589Z,20.88
2016-05-07T09:23:47.593Z,20.88
2016-05-07T09:24:48.236Z,20.98
2016-05-07T09:25:47.801Z,20.99
2016-05-07T09:26:47.898Z,20.99
2016-05-07T09:27:47.666Z,21.07
2016-05-07T09:28:47.544Z,21.03
2016-05-07T09:29:47.500Z,21.01
2016-05-07T09:30:47.377Z,21.14
2016-05-07T09:31:47.896Z,21.17
2016-05-07T09:32:47.554Z,21.27
2016-05-07T09:33:47.229Z,21.27
2016-05-07T09:34:47.935Z,21.31
2016-05-07T09:35:47.750Z,21.38
2016-05-07T09:36:47.753Z,21.42
2016-05-07T09:37:47.599Z,21.49
2016-05-07T09:38:47.790Z,21.46
2016-05-07T09:39:48.401Z,21.61
2016-05-07T09:40:47.170Z,21.68
2016-05-07T09:41:47.688Z,21.67
2016-05-07T09:42:48.191Z,21.71
2016-05-07T09:43:47.693Z,21.71
2016-05-07T09:44:47.868Z,21.77
2016-05-07T09:45:48.027Z,21.8
2016-05-07T09:46:47.905Z,21.77
2016-05-07T09:47:48.142Z,21.84
2016-05-07T09:49:47.772Z,21.91
2016-05-07T09:50:48.150Z,21.94
2016-05-07T09:51:47.965Z,21.96
2016-05-07T09:52:47.968Z,21.91
2016-05-07T09:53:47.970Z,22.09
2016-05-07T09:54:48.192Z,22.1
2016-05-07T09:55:48.413Z,22.12
2016-05-07T09:56:48.245Z,22.06
2016-05-07T09:57:48.044Z,22.03
2016-05-07T09:58:47.594Z,22.1
2016-05-07T09:59:48.064Z,22.09
2016-05-07T10:00:48.083Z,22.2
2016-05-07T10:01:48.133Z,22.09
2016-05-07T10:02:48.151Z,22.17
2016-05-07T10:03:48.153Z,22.24
2016-05-07T10:04:48.360Z,22.22
2016-05-07T10:05:48.566Z,22.35
2016-05-07T10:06:48.208Z,22.33
2016-05-07T10:07:48.196Z,22.33
2016-05-07T10:08:48.246Z,22.28
2016-05-07T10:09:48.091Z,22.2
2016-05-07T10:10:48.235Z,22.2
2016-05-07T10:11:48.254Z,22.22
2016-05-07T10:12:48.631Z,22.03
2016-05-07T10:13:48.274Z,22.15
2016-05-07T10:14:48.527Z,22.21
2016-05-07T10:15:48.498Z,22.2
2016-05-07T10:16:48.360Z,22.21
2016-05-07T10:17:48.363Z,22.28
2016-05-07T10:18:48.366Z,22.39
2016-05-07T10:19:48.196Z,22.36
2016-05-07T10:20:48.371Z,22.37
2016-05-07T10:21:48.452Z,22.46
2016-05-07T10:22:48.626Z,22.49
2016-05-07T10:23:48.441Z,22.51
2016-05-07T10:24:49.022Z,22.64
2016-05-07T10:25:48.448Z,22.65
2016-05-07T10:26:48.684Z,22.73
2016-05-07T10:27:48.681Z,22.82
2016-05-07T10:28:48.498Z,22.79
2016-05-07T10:29:48.500Z,22.79
2016-05-07T10:30:48.736Z,22.79
2016-05-07T10:31:48.600Z,22.77
2016-05-07T10:32:48.570Z,22.82
2016-05-07T10:33:48.464Z,22.82
2016-05-07T10:34:48.794Z,22.79
2016-05-07T10:35:48.595Z,22.8
2016-05-07T10:37:02.396Z,22.9
2016-05-07T10:37:48.490Z,22.94
2016-05-07T10:38:48.697Z,22.86
2016-05-07T10:39:48.871Z,22.76
2016-05-07T10:40:48.685Z,22.88
2016-05-07T10:41:48.563Z,22.9
2016-05-07T10:42:48.425Z,22.85
2016-05-07T10:43:48.538Z,23.02
2016-05-07T10:44:48.618Z,22.91
2016-05-07T10:45:48.933Z,23.02
2016-05-07T10:46:48.780Z,23.09
2016-05-07T10:47:48.782Z,23.1
2016-05-07T10:48:48.801Z,23.12
2016-05-07T10:49:49.241Z,23.19
2016-05-07T10:50:48.822Z,23.22
2016-05-07T10:51:48.918Z,23.25
2016-05-07T10:52:49.249Z,23.25
2016-05-07T10:53:49.065Z,23.23
2016-05-07T10:54:48.739Z,23.31
2016-05-07T10:55:48.445Z,23.27
2016-05-07T10:56:49.134Z,23.23
2016-05-07T10:57:48.810Z,23.23
2016-05-07T10:58:48.937Z,23.25
2016-05-07T10:59:48.986Z,23.32
2016-05-07T11:01:03.273Z,23.55
2016-05-07T11:01:49.398Z,23.68
2016-05-07T11:02:48.994Z,23.65
2016-05-07T11:04:03.110Z,23.69
2016-05-07T11:04:49.267Z,23.69
2016-05-07T11:05:49.050Z,23.75
2016-05-07T11:06:49.271Z,23.66
2016-05-07T11:07:49.072Z,23.69
2016-05-07T11:08:49.105Z,23.75
2016-05-07T11:09:49.107Z,23.84
2016-05-07T11:10:48.954Z,23.85
2016-05-07T11:11:49.175Z,23.83
2016-05-07T11:13:03.071Z,23.65
2016-05-07T11:14:03.246Z,23.66
2016-05-07T11:14:49.418Z,23.55
2016-05-07T11:16:03.282Z,23.46
2016-05-07T11:16:49.095Z,23.2
2016-05-07T11:18:03.522Z,23.28
2016-05-07T11:18:49.319Z,23.19
2016-05-07T11:19:49.338Z,23.22
2016-05-07T11:20:49.324Z,23.2
2016-05-07T11:21:49.280Z,23.16
2016-05-07T11:22:49.376Z,23.19
2016-05-07T11:23:49.473Z,23.13
2016-05-07T11:24:49.367Z,23.22
2016-05-07T11:25:49.354Z,23.31
2016-05-07T11:26:49.200Z,23.46
2016-05-07T11:27:49.609Z,23.42
2016-05-07T11:28:49.424Z,23.43
2016-05-07T11:30:03.320Z,23.54
2016-05-07T11:30:49.461Z,23.54
2016-05-07T11:32:49.497Z,23.75
2016-05-07T11:33:49.485Z,23.63
2016-05-07T11:34:49.487Z,23.61
2016-05-07T11:35:50.115Z,23.61
2016-05-07T11:36:49.758Z,23.57
2016-05-07T11:37:49.604Z,23.69
2016-05-07T11:38:49.405Z,23.69
2016-05-07T11:39:49.563Z,23.79
2016-05-07T11:40:49.581Z,23.75
2016-05-07T11:41:49.833Z,23.75
2016-05-07T11:42:49.509Z,23.93
2016-05-07T11:43:49.480Z,23.97
2016-05-07T11:44:49.670Z,24.16
2016-05-07T11:45:49.689Z,24.43
2016-05-07T11:46:49.676Z,24.46
2016-05-07T11:47:49.694Z,24.64
2016-05-07T11:48:49.899Z,24.64
2016-05-07T11:49:49.605Z,24.76
2016-05-07T11:50:49.968Z,24.68
2016-05-07T11:51:49.752Z,24.69
2016-05-07T11:52:49.770Z,24.84
2016-05-07T11:53:49.788Z,24.88
2016-05-07T11:54:49.651Z,24.85
2016-05-07T11:55:49.528Z,24.76
2016-05-07T11:56:49.859Z,24.83
2016-05-07T11:57:50.189Z,24.83
2016-05-07T11:58:49.880Z,24.88
2016-05-07T11:59:49.898Z,24.88
2016-05-07T12:00:50.104Z,24.9
2016-05-07T12:01:50.153Z,25.08
2016-05-07T12:02:49.922Z,25.24
2016-05-07T12:03:49.940Z,25.27
2016-05-07T12:05:50.008Z,25.42
2016-05-07T12:06:49.855Z,25.38
2016-05-07T12:07:50.233Z,25.36
2016-05-07T12:08:50.031Z,25.45
2016-05-07T12:09:50.238Z,25.46
2016-05-07T12:10:50.053Z,25.45
2016-05-07T12:11:50.102Z,25.46
2016-05-07T12:12:50.339Z,25.43
2016-05-07T12:13:50.124Z,25.25
2016-05-07T12:14:50.141Z,25.35
2016-05-07T12:15:50.207Z,25.39
2016-05-07T12:16:50.382Z,25.3
2016-05-07T12:17:50.180Z,25.27
2016-05-07T12:18:50.043Z,25.35
2016-05-07T12:19:50.233Z,25.46
2016-05-07T12:20:50.408Z,25.55
2016-05-07T12:21:50.254Z,25.54
2016-05-07T12:22:50.319Z,25.6
2016-05-07T12:23:50.307Z,25.67
2016-05-07T12:24:50.153Z,25.3
2016-05-07T12:25:50.327Z,25.45
2016-05-07T12:27:04.412Z,25.45
2016-05-07T12:27:50.365Z,25.38
2016-05-07T12:28:50.585Z,25.35
2016-05-07T12:29:50.401Z,25.52
2016-05-07T12:30:50.481Z,25.58
2016-05-07T12:31:50.453Z,25.55
2016-05-07T12:32:50.456Z,25.7
2016-05-07T12:33:50.692Z,25.79
2016-05-07T12:34:50.509Z,25.85
2016-05-07T12:35:50.541Z,25.83
2016-05-07T12:36:50.779Z,25.98
2016-05-07T12:37:50.250Z,26.1
2016-05-07T12:38:50.550Z,26.1
2016-05-07T12:39:50.411Z,26.18
2016-05-07T12:40:50.837Z,26.26
2016-05-07T12:41:50.808Z,26.26
2016-05-07T12:42:50.670Z,26.25
2016-05-07T12:43:50.485Z,26.02
2016-05-07T12:44:50.660Z,26.05
2016-05-07T12:45:51.163Z,26.09
2016-05-07T12:46:51.088Z,25.94
2016-05-07T12:47:50.715Z,25.61
2016-05-07T12:48:50.624Z,25.51
2016-05-07T12:49:50.767Z,25.43
2016-05-07T12:50:50.832Z,25.32
2016-05-07T12:51:50.788Z,25.25
2016-05-07T12:52:50.649Z,24.9
2016-05-07T12:53:50.871Z,25.18
2016-05-07T12:54:50.842Z,25.23
2016-05-07T12:55:50.846Z,25.17
2016-05-07T12:56:50.848Z,25.23
2016-05-07T12:58:04.995Z,25.03
2016-05-07T12:58:50.901Z,25.15
2016-05-07T12:59:50.794Z,25.1
2016-05-07T13:00:50.937Z,25.15
2016-05-07T13:01:50.956Z,25.23
2016-05-07T13:02:50.990Z,25.17
2016-05-07T13:03:50.992Z,25.32
2016-05-07T13:04:51.104Z,25.33
2016-05-07T13:05:51.013Z,25.35
2016-05-07T13:06:51.234Z,25.38
2016-05-07T13:07:51.065Z,25.5
2016-05-07T13:08:51.333Z,25.67
2016-05-07T13:09:50.961Z,25.62
2016-05-07T13:10:51.339Z,25.77
2016-05-07T13:11:51.139Z,25.87
2016-05-07T13:12:51.172Z,25.91
2016-05-07T13:13:51.160Z,26.02
2016-05-07T13:14:51.380Z,26.05